Wednesday, October 18, 2017, 3:41 AM EDT
Back to Local

KUKT, Quakertown, Quakertown Airport

Location: Quakertown, PA, United States Lat: 40.435
Local Time: 3:41 AM EDT ( 7:41 GMT) Lon: -75.382
Time Zone: US/Eastern Elev: 524 ft

Show me the last for .
Show Coded

Time T Td Feel RH Dir Speed Gust Alt SLP Vis Weather Sky Remarks
2017-10-18 03:15 37 37 - 100 - Calm - 30.30 - 10 CLR None
2017-10-18 02:55 37 37 - 100 - Calm - 30.31 - 10 CLR None
2017-10-18 02:35 37 37 - 100 - Calm - 30.32 - 10 CLR None
2017-10-18 02:15 37 37 - 100 - Calm - 30.32 - 10 CLR None
2017-10-18 01:55 37 37 - 100 - Calm - 30.31 - 10 CLR None
2017-10-18 01:35 37 37 - 100 - Calm - 30.31 - 10 CLR None
2017-10-18 01:15 39 37 - 93 - Calm - 30.31 - 10 CLR None
2017-10-18 00:55 37 37 - 100 - Calm - 30.31 - 10 CLR None
2017-10-18 00:35 39 37 - 93 - Calm - 30.31 - 10 CLR None
2017-10-18 00:15 39 37 - 93 - Calm - 30.32 - 10 CLR None
2017-10-17 23:55 39 37 - 93 - Calm - 30.31 - 10 CLR None
2017-10-17 23:35 39 37 - 93 - Calm - 30.31 - 10 CLR None
2017-10-17 23:15 39 37 - 93 - Calm - 30.31 - 10 CLR None
2017-10-17 22:55 39 37 - 93 - Calm - 30.31 - 10 CLR None
2017-10-17 22:35 41 37 - 86 - Calm - 30.31 - 10 CLR None
2017-10-17 22:15 41 37 - 86 - Calm - 30.31 - 10 CLR None
2017-10-17 21:55 41 37 - 86 - Calm - 30.30 - 10 CLR None
2017-10-17 21:35 41 39 - 93 - Calm - 30.30 - 10 CLR None
2017-10-17 21:15 41 39 - 93 - Calm - 30.30 - 10 CLR None
2017-10-17 20:55 41 37 - 86 - Calm - 30.30 - 10 CLR None
2017-10-17 20:35 43 39 - 86 - Calm - 30.30 - 10 CLR None
2017-10-17 20:15 43 37 - 81 - Calm - 30.30 - 10 CLR None
2017-10-17 19:55 45 37 - 75 - Calm - 30.29 - 10 CLR None
2017-10-17 19:35 45 37 - 75 - Calm - 30.29 - 10 CLR None
2017-10-17 19:15 46 39 - 75 - Calm - 30.29 - 10 CLR None
2017-10-17 18:55 48 39 - 70 - Calm - 30.28 - 10 CLR None
2017-10-17 18:35 50 37 - 61 - Calm - 30.27 - 10 CLR None
2017-10-17 18:15 55 34 - 43 220° 3 - 30.27 - 10 CLR None
2017-10-17 17:55 57 32 - 38 240° 5 - 30.27 - 10 CLR None
2017-10-17 17:35 57 32 - 38 230° 7 - 30.27 - 10 CLR None
2017-10-17 17:15 59 30 - 33 230° 6 - 30.27 - 10 CLR None
2017-10-17 16:55 59 32 - 35 210° 8 - 30.27 - 10 CLR None
2017-10-17 16:35 59 32 - 35 210° 6 - 30.27 - 10 CLR None
2017-10-17 16:15 59 32 - 35 280° 3 - 30.27 - 10 CLR None
2017-10-17 15:55 59 32 - 35 240° 7 - 30.28 - 10 CLR None
2017-10-17 15:35 59 32 - 35 270° 5 - 30.28 - 10 CLR None
2017-10-17 15:15 59 32 - 35 280° 5 - 30.28 - 10 CLR None
2017-10-17 14:55 59 32 - 35 260° 5 - 30.29 - 10 CLR None
2017-10-17 14:35 57 32 - 38 310° 6 - 30.29 - 10 CLR None
2017-10-17 14:15 57 32 - 38 290° 5 - 30.30 - 10 CLR None
2017-10-17 13:55 57 34 - 41 330° 6 - 30.30 - 10 CLR None
2017-10-17 13:35 55 32 - 40 300° 6 - 30.31 - 10 CLR None
2017-10-17 13:15 55 34 - 43 260° 3 - 30.32 - 10 CLR None
2017-10-17 12:55 54 34 - 46 280° 5 - 30.33 - 10 CLR None
2017-10-17 12:35 54 32 - 43 230° 3 - 30.34 - 10 CLR None
2017-10-17 12:15 54 34 - 46 - Calm - 30.34 - 10 CLR None
2017-10-17 11:55 52 32 - 46 20° 3 - 30.35 - 10 CLR None
2017-10-17 11:35 50 34 49 53 320° 3 - 30.35 - 10 CLR None
2017-10-17 11:15 50 32 49 49 60° 3 - 30.36 - 10 CLR None
2017-10-17 10:55 48 34 47 57 270° 3 - 30.36 - 10 CLR None
2017-10-17 10:35 48 34 47 57 50° 3 - 30.37 - 10 CLR None
2017-10-17 10:15 46 34 44 61 70° 5 - 30.37 - 10 CLR None
2017-10-17 09:55 46 34 44 61 60° 5 - 30.37 - 10 CLR None
2017-10-17 09:35 45 34 43 65 20° 3 - 30.37 - 10 CLR None
2017-10-17 09:15 45 32 41 61 10° 6 - 30.37 - 10 CLR None
2017-10-17 08:55 43 32 41 65 360° 3 - 30.37 - 10 CLR None
2017-10-17 08:35 41 32 39 70 360° 3 - 30.36 - 10 CLR None
2017-10-17 08:15 39 32 37 75 360° 3 - 30.35 - 10 CLR None
2017-10-17 07:55 36 32 - 86 - Calm - 30.34 - 10 CLR None
2017-10-17 07:35 37 32 35 80 350° 3 - 30.33 - 10 CLR None
2017-10-17 07:15 36 32 32 86 340° 5 - 30.33 - 10 CLR None
2017-10-17 06:55 34 32 - 93 - Calm - 30.34 - 10 CLR None
2017-10-17 06:35 36 32 - 86 - Calm - 30.33 - 10 CLR None
2017-10-17 06:15 34 32 31 93 330° 3 - 30.32 - 10 CLR None
2017-10-17 05:55 36 32 - 86 - Calm - 30.32 - 10 CLR None
2017-10-17 05:35 34 32 - 93 - Calm - 30.31 - 10 CLR None
2017-10-17 05:15 36 32 - 86 - Calm - 30.30 - 10 CLR None
2017-10-17 04:55 37 32 - 80 - Calm - 30.29 - 10 CLR None
2017-10-17 04:35 39 32 - 75 - Calm - 30.29 - 10 CLR None
2017-10-17 04:15 39 32 37 75 360° 3 - 30.28 - 10 CLR None
2017-10-17 03:55 39 32 37 75 330° 3 - 30.27 - 10 CLR None

Support USWX by starting your Amazon purchase here.